sensor_id;sensor_type;location;lat;lon;timestamp;P1;durP1;ratioP1;P2;durP2;ratioP2
18378;SDS011;27025;51.986;5.984;2023-06-14T00:01:26;5.22;;;3.55;;
18378;SDS011;27025;51.986;5.984;2023-06-14T00:03:52;8.23;;;3.60;;
18378;SDS011;27025;51.986;5.984;2023-06-14T00:06:19;5.15;;;3.38;;
18378;SDS011;27025;51.986;5.984;2023-06-14T00:08:45;7.68;;;3.60;;
18378;SDS011;27025;51.986;5.984;2023-06-14T00:11:11;4.75;;;3.45;;
18378;SDS011;27025;51.986;5.984;2023-06-14T00:13:37;6.22;;;3.53;;
18378;SDS011;27025;51.986;5.984;2023-06-14T00:16:03;4.40;;;3.50;;
18378;SDS011;27025;51.986;5.984;2023-06-14T00:18:29;5.07;;;3.40;;
18378;SDS011;27025;51.986;5.984;2023-06-14T00:20:55;5.63;;;3.60;;
18378;SDS011;27025;51.986;5.984;2023-06-14T00:23:21;7.80;;;3.87;;
18378;SDS011;27025;51.986;5.984;2023-06-14T00:25:47;5.20;;;3.60;;
18378;SDS011;27025;51.986;5.984;2023-06-14T00:28:13;7.70;;;3.35;;
18378;SDS011;27025;51.986;5.984;2023-06-14T00:30:40;7.10;;;3.63;;
18378;SDS011;27025;51.986;5.984;2023-06-14T00:33:05;7.80;;;3.47;;
18378;SDS011;27025;51.986;5.984;2023-06-14T00:35:32;8.23;;;3.27;;
18378;SDS011;27025;51.986;5.984;2023-06-14T00:37:57;6.22;;;3.45;;
18378;SDS011;27025;51.986;5.984;2023-06-14T00:40:24;6.60;;;3.63;;
18378;SDS011;27025;51.986;5.984;2023-06-14T00:42:50;4.50;;;3.43;;
18378;SDS011;27025;51.986;5.984;2023-06-14T00:45:16;8.57;;;3.25;;
18378;SDS011;27025;51.986;5.984;2023-06-14T00:47:42;5.77;;;3.33;;
18378;SDS011;27025;51.986;5.984;2023-06-14T00:50:09;5.27;;;3.47;;
18378;SDS011;27025;51.986;5.984;2023-06-14T00:52:36;6.57;;;3.57;;
18378;SDS011;27025;51.986;5.984;2023-06-14T00:55:02;6.47;;;3.70;;
18378;SDS011;27025;51.986;5.984;2023-06-14T00:57:28;4.73;;;3.30;;
18378;SDS011;27025;51.986;5.984;2023-06-14T00:59:55;6.63;;;3.43;;
18378;SDS011;27025;51.986;5.984;2023-06-14T01:02:21;9.67;;;3.30;;
18378;SDS011;27025;51.986;5.984;2023-06-14T01:04:48;4.50;;;3.30;;
18378;SDS011;27025;51.986;5.984;2023-06-14T01:12:37;8.03;;;3.40;;
18378;SDS011;27025;51.986;5.984;2023-06-14T01:15:04;6.53;;;3.30;;
18378;SDS011;27025;51.986;5.984;2023-06-14T01:17:32;6.00;;;3.40;;
18378;SDS011;27025;51.986;5.984;2023-06-14T01:19:59;5.53;;;3.50;;
18378;SDS011;27025;51.986;5.984;2023-06-14T01:22:27;8.63;;;3.50;;
18378;SDS011;27025;51.986;5.984;2023-06-14T01:24:53;5.20;;;3.00;;
18378;SDS011;27025;51.986;5.984;2023-06-14T01:27:23;4.33;;;3.40;;
18378;SDS011;27025;51.986;5.984;2023-06-14T01:29:53;6.97;;;3.57;;
18378;SDS011;27025;51.986;5.984;2023-06-14T01:32:21;7.27;;;3.70;;
18378;SDS011;27025;51.986;5.984;2023-06-14T01:34:48;8.90;;;3.33;;
18378;SDS011;27025;51.986;5.984;2023-06-14T01:37:14;6.77;;;3.23;;
18378;SDS011;27025;51.986;5.984;2023-06-14T01:39:40;7.13;;;3.23;;
18378;SDS011;27025;51.986;5.984;2023-06-14T01:42:07;7.83;;;2.93;;
18378;SDS011;27025;51.986;5.984;2023-06-14T01:44:33;11.93;;;3.30;;
18378;SDS011;27025;51.986;5.984;2023-06-14T01:47:00;6.27;;;3.40;;
18378;SDS011;27025;51.986;5.984;2023-06-14T01:49:26;5.67;;;3.40;;
18378;SDS011;27025;51.986;5.984;2023-06-14T01:51:52;8.27;;;3.60;;
18378;SDS011;27025;51.986;5.984;2023-06-14T01:54:18;6.23;;;3.30;;
18378;SDS011;27025;51.986;5.984;2023-06-14T01:56:44;8.40;;;3.17;;
18378;SDS011;27025;51.986;5.984;2023-06-14T01:59:10;6.17;;;3.70;;
18378;SDS011;27025;51.986;5.984;2023-06-14T02:01:36;9.43;;;3.43;;
18378;SDS011;27025;51.986;5.984;2023-06-14T02:04:02;9.07;;;3.60;;
18378;SDS011;27025;51.986;5.984;2023-06-14T02:06:28;7.03;;;3.40;;
18378;SDS011;27025;51.986;5.984;2023-06-14T02:08:55;6.33;;;3.50;;
18378;SDS011;27025;51.986;5.984;2023-06-14T02:11:20;6.90;;;3.80;;
18378;SDS011;27025;51.986;5.984;2023-06-14T02:13:46;8.50;;;3.20;;
18378;SDS011;27025;51.986;5.984;2023-06-14T02:16:14;12.37;;;3.30;;
18378;SDS011;27025;51.986;5.984;2023-06-14T02:18:42;7.43;;;3.23;;
18378;SDS011;27025;51.986;5.984;2023-06-14T02:21:08;10.77;;;3.63;;
18378;SDS011;27025;51.986;5.984;2023-06-14T02:23:34;9.07;;;3.20;;
18378;SDS011;27025;51.986;5.984;2023-06-14T02:26:00;9.07;;;3.30;;
18378;SDS011;27025;51.986;5.984;2023-06-14T02:28:27;6.13;;;3.47;;
18378;SDS011;27025;51.986;5.984;2023-06-14T02:30:53;5.80;;;3.20;;
18378;SDS011;27025;51.986;5.984;2023-06-14T02:33:19;3.83;;;3.03;;
18378;SDS011;27025;51.986;5.984;2023-06-14T02:35:47;8.87;;;3.40;;
18378;SDS011;27025;51.986;5.984;2023-06-14T02:38:13;5.37;;;3.33;;
18378;SDS011;27025;51.986;5.984;2023-06-14T02:40:39;6.07;;;3.00;;
18378;SDS011;27025;51.986;5.984;2023-06-14T02:43:07;10.97;;;3.20;;
18378;SDS011;27025;51.986;5.984;2023-06-14T02:45:33;5.43;;;3.23;;
18378;SDS011;27025;51.986;5.984;2023-06-14T02:47:59;5.27;;;3.27;;
18378;SDS011;27025;51.986;5.984;2023-06-14T02:50:25;7.17;;;3.27;;
18378;SDS011;27025;51.986;5.984;2023-06-14T02:52:53;4.93;;;3.20;;
18378;SDS011;27025;51.986;5.984;2023-06-14T02:55:20;6.63;;;3.23;;
18378;SDS011;27025;51.986;5.984;2023-06-14T02:57:47;9.63;;;3.47;;
18378;SDS011;27025;51.986;5.984;2023-06-14T03:00:13;6.60;;;3.00;;
18378;SDS011;27025;51.986;5.984;2023-06-14T03:02:39;5.33;;;2.80;;
18378;SDS011;27025;51.986;5.984;2023-06-14T03:05:07;9.43;;;3.30;;
18378;SDS011;27025;51.986;5.984;2023-06-14T03:07:34;4.20;;;3.07;;
18378;SDS011;27025;51.986;5.984;2023-06-14T03:10:06;7.27;;;3.37;;
18378;SDS011;27025;51.986;5.984;2023-06-14T03:12:33;4.47;;;3.30;;
18378;SDS011;27025;51.986;5.984;2023-06-14T03:14:59;9.27;;;3.50;;
18378;SDS011;27025;51.986;5.984;2023-06-14T03:17:29;6.63;;;3.20;;
18378;SDS011;27025;51.986;5.984;2023-06-14T03:19:58;5.70;;;3.23;;
18378;SDS011;27025;51.986;5.984;2023-06-14T03:22:25;5.43;;;3.60;;
18378;SDS011;27025;51.986;5.984;2023-06-14T03:24:51;7.07;;;3.17;;
18378;SDS011;27025;51.986;5.984;2023-06-14T03:27:19;6.00;;;2.87;;
18378;SDS011;27025;51.986;5.984;2023-06-14T03:29:45;7.30;;;3.40;;
18378;SDS011;27025;51.986;5.984;2023-06-14T03:32:11;8.90;;;3.00;;
18378;SDS011;27025;51.986;5.984;2023-06-14T03:34:37;5.90;;;3.53;;
18378;SDS011;27025;51.986;5.984;2023-06-14T03:37:04;5.67;;;3.20;;
18378;SDS011;27025;51.986;5.984;2023-06-14T03:39:30;6.70;;;3.10;;
18378;SDS011;27025;51.986;5.984;2023-06-14T03:41:56;5.83;;;2.93;;
18378;SDS011;27025;51.986;5.984;2023-06-14T03:44:22;6.33;;;3.23;;
18378;SDS011;27025;51.986;5.984;2023-06-14T03:46:48;10.67;;;3.03;;
18378;SDS011;27025;51.986;5.984;2023-06-14T03:49:15;4.87;;;3.23;;
18378;SDS011;27025;51.986;5.984;2023-06-14T03:51:42;8.93;;;3.37;;
18378;SDS011;27025;51.986;5.984;2023-06-14T03:54:08;6.10;;;3.20;;
18378;SDS011;27025;51.986;5.984;2023-06-14T03:56:34;8.27;;;3.53;;
18378;SDS011;27025;51.986;5.984;2023-06-14T03:59:01;10.17;;;3.47;;
18378;SDS011;27025;51.986;5.984;2023-06-14T04:01:27;5.63;;;3.40;;
18378;SDS011;27025;51.986;5.984;2023-06-14T04:03:57;7.83;;;3.20;;
18378;SDS011;27025;51.986;5.984;2023-06-14T04:06:23;8.33;;;3.43;;
18378;SDS011;27025;51.986;5.984;2023-06-14T04:08:56;6.87;;;3.00;;
18378;SDS011;27025;51.986;5.984;2023-06-14T04:11:22;4.83;;;3.07;;
18378;SDS011;27025;51.986;5.984;2023-06-14T04:13:50;9.07;;;2.90;;
18378;SDS011;27025;51.986;5.984;2023-06-14T04:16:19;5.10;;;3.10;;
18378;SDS011;27025;51.986;5.984;2023-06-14T04:18:45;6.93;;;3.43;;
18378;SDS011;27025;51.986;5.984;2023-06-14T04:21:11;6.77;;;3.57;;
18378;SDS011;27025;51.986;5.984;2023-06-14T04:23:37;6.67;;;3.20;;
18378;SDS011;27025;51.986;5.984;2023-06-14T04:26:03;6.33;;;3.60;;
18378;SDS011;27025;51.986;5.984;2023-06-14T04:28:29;5.33;;;2.97;;
18378;SDS011;27025;51.986;5.984;2023-06-14T04:30:55;6.33;;;3.07;;
18378;SDS011;27025;51.986;5.984;2023-06-14T04:33:21;6.23;;;3.10;;
18378;SDS011;27025;51.986;5.984;2023-06-14T04:35:50;10.53;;;3.47;;
18378;SDS011;27025;51.986;5.984;2023-06-14T04:38:18;6.20;;;3.22;;
18378;SDS011;27025;51.986;5.984;2023-06-14T04:40:49;5.17;;;3.33;;
18378;SDS011;27025;51.986;5.984;2023-06-14T04:43:17;5.37;;;3.10;;
18378;SDS011;27025;51.986;5.984;2023-06-14T04:45:51;5.93;;;3.10;;
18378;SDS011;27025;51.986;5.984;2023-06-14T04:48:19;5.13;;;2.90;;
18378;SDS011;27025;51.986;5.984;2023-06-14T04:50:45;5.03;;;3.33;;
18378;SDS011;27025;51.986;5.984;2023-06-14T04:53:11;7.23;;;3.70;;
18378;SDS011;27025;51.986;5.984;2023-06-14T04:55:37;6.50;;;3.37;;
18378;SDS011;27025;51.986;5.984;2023-06-14T04:58:03;6.80;;;3.20;;
18378;SDS011;27025;51.986;5.984;2023-06-14T05:00:30;4.97;;;3.10;;
18378;SDS011;27025;51.986;5.984;2023-06-14T05:02:56;5.90;;;3.33;;
18378;SDS011;27025;51.986;5.984;2023-06-14T05:05:22;5.53;;;3.20;;
18378;SDS011;27025;51.986;5.984;2023-06-14T05:07:49;4.93;;;3.17;;
18378;SDS011;27025;51.986;5.984;2023-06-14T05:10:15;4.70;;;3.23;;
18378;SDS011;27025;51.986;5.984;2023-06-14T05:12:41;4.80;;;3.17;;
18378;SDS011;27025;51.986;5.984;2023-06-14T05:15:08;5.47;;;3.60;;
18378;SDS011;27025;51.986;5.984;2023-06-14T05:17:35;6.83;;;3.20;;
18378;SDS011;27025;51.986;5.984;2023-06-14T05:20:01;10.53;;;3.50;;
18378;SDS011;27025;51.986;5.984;2023-06-14T05:22:28;4.97;;;3.50;;
18378;SDS011;27025;51.986;5.984;2023-06-14T05:24:55;5.40;;;3.60;;
18378;SDS011;27025;51.986;5.984;2023-06-14T05:27:20;6.37;;;3.20;;
18378;SDS011;27025;51.986;5.984;2023-06-14T05:29:47;7.13;;;3.27;;
18378;SDS011;27025;51.986;5.984;2023-06-14T05:32:13;5.17;;;3.37;;
18378;SDS011;27025;51.986;5.984;2023-06-14T05:34:39;7.07;;;3.40;;
18378;SDS011;27025;51.986;5.984;2023-06-14T05:37:05;5.20;;;3.30;;
18378;SDS011;27025;51.986;5.984;2023-06-14T05:39:32;10.27;;;3.70;;
18378;SDS011;27025;51.986;5.984;2023-06-14T05:41:58;6.73;;;3.30;;
18378;SDS011;27025;51.986;5.984;2023-06-14T05:44:24;4.37;;;3.37;;
18378;SDS011;27025;51.986;5.984;2023-06-14T05:46:50;7.90;;;3.97;;
18378;SDS011;27025;51.986;5.984;2023-06-14T05:49:16;5.03;;;3.13;;
18378;SDS011;27025;51.986;5.984;2023-06-14T05:51:42;8.87;;;3.40;;
18378;SDS011;27025;51.986;5.984;2023-06-14T05:54:08;3.80;;;3.10;;
18378;SDS011;27025;51.986;5.984;2023-06-14T05:56:34;7.10;;;3.43;;
18378;SDS011;27025;51.986;5.984;2023-06-14T05:59:01;5.60;;;3.13;;
18378;SDS011;27025;51.986;5.984;2023-06-14T06:01:27;7.93;;;3.07;;
18378;SDS011;27025;51.986;5.984;2023-06-14T06:03:53;5.33;;;3.23;;
18378;SDS011;27025;51.986;5.984;2023-06-14T06:06:19;6.47;;;3.20;;
18378;SDS011;27025;51.986;5.984;2023-06-14T06:08:45;7.33;;;4.00;;
18378;SDS011;27025;51.986;5.984;2023-06-14T06:11:11;7.37;;;3.90;;
18378;SDS011;27025;51.986;5.984;2023-06-14T06:13:37;7.78;;;3.85;;
18378;SDS011;27025;51.986;5.984;2023-06-14T06:16:04;6.10;;;3.67;;
18378;SDS011;27025;51.986;5.984;2023-06-14T06:18:30;9.60;;;3.87;;
18378;SDS011;27025;51.986;5.984;2023-06-14T06:20:56;4.93;;;3.63;;
18378;SDS011;27025;51.986;5.984;2023-06-14T06:23:22;11.23;;;4.80;;
18378;SDS011;27025;51.986;5.984;2023-06-14T06:25:48;8.73;;;3.40;;
18378;SDS011;27025;51.986;5.984;2023-06-14T06:28:14;6.33;;;3.50;;
18378;SDS011;27025;51.986;5.984;2023-06-14T06:30:40;3.97;;;3.20;;
18378;SDS011;27025;51.986;5.984;2023-06-14T06:33:06;4.67;;;3.60;;
18378;SDS011;27025;51.986;5.984;2023-06-14T06:35:32;6.07;;;3.30;;
18378;SDS011;27025;51.986;5.984;2023-06-14T06:37:59;7.83;;;3.40;;
18378;SDS011;27025;51.986;5.984;2023-06-14T06:40:25;5.53;;;3.50;;
18378;SDS011;27025;51.986;5.984;2023-06-14T06:42:51;5.53;;;3.37;;
18378;SDS011;27025;51.986;5.984;2023-06-14T06:45:18;4.80;;;3.20;;
18378;SDS011;27025;51.986;5.984;2023-06-14T06:47:44;6.33;;;3.50;;
18378;SDS011;27025;51.986;5.984;2023-06-14T06:50:10;4.87;;;3.30;;
18378;SDS011;27025;51.986;5.984;2023-06-14T06:52:36;4.53;;;3.37;;
18378;SDS011;27025;51.986;5.984;2023-06-14T06:55:02;6.33;;;3.10;;
18378;SDS011;27025;51.986;5.984;2023-06-14T06:57:28;7.10;;;3.40;;
18378;SDS011;27025;51.986;5.984;2023-06-14T06:59:54;8.97;;;4.03;;
18378;SDS011;27025;51.986;5.984;2023-06-14T07:02:20;5.70;;;3.10;;
18378;SDS011;27025;51.986;5.984;2023-06-14T07:04:46;7.13;;;3.40;;
18378;SDS011;27025;51.986;5.984;2023-06-14T07:07:12;9.83;;;3.47;;
18378;SDS011;27025;51.986;5.984;2023-06-14T07:09:38;9.10;;;3.40;;
18378;SDS011;27025;51.986;5.984;2023-06-14T07:12:06;8.00;;;3.47;;
18378;SDS011;27025;51.986;5.984;2023-06-14T07:14:33;8.30;;;3.00;;
18378;SDS011;27025;51.986;5.984;2023-06-14T07:16:58;6.90;;;2.93;;
18378;SDS011;27025;51.986;5.984;2023-06-14T07:19:25;5.73;;;2.97;;
18378;SDS011;27025;51.986;5.984;2023-06-14T07:21:51;5.30;;;2.60;;
18378;SDS011;27025;51.986;5.984;2023-06-14T07:24:17;9.57;;;3.00;;
18378;SDS011;27025;51.986;5.984;2023-06-14T07:26:43;4.00;;;2.57;;
18378;SDS011;27025;51.986;5.984;2023-06-14T07:29:09;4.50;;;2.70;;
18378;SDS011;27025;51.986;5.984;2023-06-14T07:31:35;4.10;;;2.43;;
18378;SDS011;27025;51.986;5.984;2023-06-14T07:34:01;4.23;;;2.60;;
18378;SDS011;27025;51.986;5.984;2023-06-14T07:36:28;4.20;;;2.40;;
18378;SDS011;27025;51.986;5.984;2023-06-14T07:38:54;3.23;;;2.10;;
18378;SDS011;27025;51.986;5.984;2023-06-14T07:41:20;3.80;;;2.20;;
18378;SDS011;27025;51.986;5.984;2023-06-14T07:43:46;2.67;;;2.00;;
18378;SDS011;27025;51.986;5.984;2023-06-14T07:46:12;3.30;;;2.30;;
18378;SDS011;27025;51.986;5.984;2023-06-14T07:48:38;2.60;;;1.87;;
18378;SDS011;27025;51.986;5.984;2023-06-14T07:51:04;3.80;;;2.30;;
18378;SDS011;27025;51.986;5.984;2023-06-14T07:53:30;4.10;;;2.00;;
18378;SDS011;27025;51.986;5.984;2023-06-14T07:55:56;3.57;;;1.97;;
18378;SDS011;27025;51.986;5.984;2023-06-14T07:58:22;1.80;;;1.70;;
18378;SDS011;27025;51.986;5.984;2023-06-14T08:00:48;3.47;;;1.85;;
18378;SDS011;27025;51.986;5.984;2023-06-14T08:03:15;5.75;;;2.53;;
18378;SDS011;27025;51.986;5.984;2023-06-14T08:05:41;5.22;;;2.35;;
18378;SDS011;27025;51.986;5.984;2023-06-14T08:08:06;7.00;;;2.22;;
18378;SDS011;27025;51.986;5.984;2023-06-14T08:10:33;5.32;;;2.13;;
18378;SDS011;27025;51.986;5.984;2023-06-14T08:12:59;4.55;;;2.13;;
18378;SDS011;27025;51.986;5.984;2023-06-14T08:15:25;2.25;;;2.05;;
18378;SDS011;27025;51.986;5.984;2023-06-14T08:17:51;5.03;;;2.20;;
18378;SDS011;27025;51.986;5.984;2023-06-14T08:20:17;5.28;;;3.35;;
18378;SDS011;27025;51.986;5.984;2023-06-14T08:22:43;8.57;;;3.78;;
18378;SDS011;27025;51.986;5.984;2023-06-14T08:25:11;6.72;;;2.28;;
18378;SDS011;27025;51.986;5.984;2023-06-14T08:27:37;6.15;;;2.70;;
18378;SDS011;27025;51.986;5.984;2023-06-14T08:30:03;4.93;;;2.60;;
18378;SDS011;27025;51.986;5.984;2023-06-14T08:32:29;3.78;;;2.13;;
18378;SDS011;27025;51.986;5.984;2023-06-14T08:34:55;8.80;;;2.80;;
18378;SDS011;27025;51.986;5.984;2023-06-14T08:37:21;4.10;;;2.40;;
18378;SDS011;27025;51.986;5.984;2023-06-14T08:39:47;3.90;;;2.60;;
18378;SDS011;27025;51.986;5.984;2023-06-14T08:42:14;7.35;;;2.38;;
18378;SDS011;27025;51.986;5.984;2023-06-14T08:44:40;4.82;;;2.40;;
18378;SDS011;27025;51.986;5.984;2023-06-14T08:47:06;3.33;;;2.20;;
18378;SDS011;27025;51.986;5.984;2023-06-14T08:49:33;4.45;;;2.13;;
18378;SDS011;27025;51.986;5.984;2023-06-14T08:52:01;3.05;;;2.35;;
18378;SDS011;27025;51.986;5.984;2023-06-14T08:54:28;4.43;;;2.20;;
18378;SDS011;27025;51.986;5.984;2023-06-14T08:57:01;6.35;;;2.35;;
18378;SDS011;27025;51.986;5.984;2023-06-14T08:59:29;4.70;;;2.40;;
18378;SDS011;27025;51.986;5.984;2023-06-14T09:01:59;8.75;;;3.20;;
18378;SDS011;27025;51.986;5.984;2023-06-14T09:04:25;7.05;;;2.70;;
18378;SDS011;27025;51.986;5.984;2023-06-14T09:06:54;3.83;;;2.10;;
18378;SDS011;27025;51.986;5.984;2023-06-14T09:09:20;4.78;;;2.20;;
18378;SDS011;27025;51.986;5.984;2023-06-14T09:11:48;4.82;;;1.90;;
18378;SDS011;27025;51.986;5.984;2023-06-14T09:14:14;3.97;;;1.83;;
18378;SDS011;27025;51.986;5.984;2023-06-14T09:16:40;3.30;;;2.10;;
18378;SDS011;27025;51.986;5.984;2023-06-14T09:19:06;2.78;;;1.70;;
18378;SDS011;27025;51.986;5.984;2023-06-14T09:21:33;3.78;;;2.17;;
18378;SDS011;27025;51.986;5.984;2023-06-14T09:24:02;3.70;;;2.10;;
18378;SDS011;27025;51.986;5.984;2023-06-14T09:26:29;3.05;;;1.80;;
18378;SDS011;27025;51.986;5.984;2023-06-14T09:28:55;7.43;;;2.55;;
18378;SDS011;27025;51.986;5.984;2023-06-14T09:31:21;7.28;;;2.30;;
18378;SDS011;27025;51.986;5.984;2023-06-14T09:33:48;2.97;;;1.90;;
18378;SDS011;27025;51.986;5.984;2023-06-14T09:36:15;5.15;;;1.95;;
18378;SDS011;27025;51.986;5.984;2023-06-14T09:38:42;5.25;;;2.10;;
18378;SDS011;27025;51.986;5.984;2023-06-14T09:41:17;3.25;;;2.45;;
18378;SDS011;27025;51.986;5.984;2023-06-14T09:43:43;6.05;;;2.25;;
18378;SDS011;27025;51.986;5.984;2023-06-14T09:46:10;5.32;;;2.22;;
18378;SDS011;27025;51.986;5.984;2023-06-14T09:48:36;3.97;;;2.00;;
18378;SDS011;27025;51.986;5.984;2023-06-14T09:51:04;4.82;;;1.90;;
18378;SDS011;27025;51.986;5.984;2023-06-14T09:53:33;3.53;;;1.75;;
18378;SDS011;27025;51.986;5.984;2023-06-14T09:56:01;1.70;;;1.60;;
18378;SDS011;27025;51.986;5.984;2023-06-14T09:58:27;3.63;;;1.70;;
18378;SDS011;27025;51.986;5.984;2023-06-14T10:00:54;2.80;;;1.70;;
18378;SDS011;27025;51.986;5.984;2023-06-14T10:03:22;2.67;;;1.80;;
18378;SDS011;27025;51.986;5.984;2023-06-14T10:05:50;2.33;;;2.10;;
18378;SDS011;27025;51.986;5.984;2023-06-14T10:08:18;3.85;;;1.90;;
18378;SDS011;27025;51.986;5.984;2023-06-14T10:10:44;3.50;;;1.77;;
18378;SDS011;27025;51.986;5.984;2023-06-14T10:13:10;3.90;;;1.83;;
18378;SDS011;27025;51.986;5.984;2023-06-14T10:18:08;4.85;;;2.00;;
18378;SDS011;27025;51.986;5.984;2023-06-14T10:20:41;2.13;;;1.90;;
18378;SDS011;27025;51.986;5.984;2023-06-14T10:23:12;4.15;;;1.83;;
18378;SDS011;27025;51.986;5.984;2023-06-14T10:25:39;6.75;;;2.00;;
18378;SDS011;27025;51.986;5.984;2023-06-14T10:30:37;3.20;;;2.00;;
18378;SDS011;27025;51.986;5.984;2023-06-14T10:33:04;2.83;;;2.00;;
18378;SDS011;27025;51.986;5.984;2023-06-14T10:35:31;5.50;;;1.90;;
18378;SDS011;27025;51.986;5.984;2023-06-14T10:38:07;4.70;;;1.77;;
18378;SDS011;27025;51.986;5.984;2023-06-14T10:40:33;5.93;;;1.77;;
18378;SDS011;27025;51.986;5.984;2023-06-14T10:43:00;5.53;;;1.85;;
18378;SDS011;27025;51.986;5.984;2023-06-14T10:45:26;2.60;;;1.85;;
18378;SDS011;27025;51.986;5.984;2023-06-14T10:47:52;4.50;;;1.58;;
18378;SDS011;27025;51.986;5.984;2023-06-14T10:50:22;4.82;;;1.42;;
18378;SDS011;27025;51.986;5.984;2023-06-14T10:52:54;4.90;;;1.70;;
18378;SDS011;27025;51.986;5.984;2023-06-14T10:55:20;4.25;;;2.00;;
18378;SDS011;27025;51.986;5.984;2023-06-14T10:57:48;6.38;;;1.77;;
18378;SDS011;27025;51.986;5.984;2023-06-14T11:00:21;4.55;;;1.80;;
18378;SDS011;27025;51.986;5.984;2023-06-14T11:05:50;2.30;;;2.05;;
18378;SDS011;27025;51.986;5.984;2023-06-14T11:10:59;3.90;;;2.03;;
18378;SDS011;27025;51.986;5.984;2023-06-14T11:13:25;3.40;;;2.03;;
18378;SDS011;27025;51.986;5.984;2023-06-14T11:15:51;4.50;;;2.20;;
18378;SDS011;27025;51.986;5.984;2023-06-14T11:18:18;4.55;;;2.05;;
18378;SDS011;27025;51.986;5.984;2023-06-14T11:20:49;5.53;;;1.95;;
18378;SDS011;27025;51.986;5.984;2023-06-14T11:23:15;4.82;;;2.00;;
18378;SDS011;27025;51.986;5.984;2023-06-14T11:25:41;5.78;;;2.00;;
18378;SDS011;27025;51.986;5.984;2023-06-14T11:28:07;3.90;;;1.85;;
18378;SDS011;27025;51.986;5.984;2023-06-14T11:30:33;4.50;;;2.20;;
18378;SDS011;27025;51.986;5.984;2023-06-14T11:32:59;2.97;;;1.90;;
18378;SDS011;27025;51.986;5.984;2023-06-14T11:35:25;2.63;;;2.00;;
18378;SDS011;27025;51.986;5.984;2023-06-14T11:37:55;4.78;;;1.88;;
18378;SDS011;27025;51.986;5.984;2023-06-14T11:40:24;2.00;;;1.80;;
18378;SDS011;27025;51.986;5.984;2023-06-14T11:42:57;2.13;;;1.92;;
18378;SDS011;27025;51.986;5.984;2023-06-14T11:45:24;4.15;;;1.77;;
18378;SDS011;27025;51.986;5.984;2023-06-14T11:47:50;3.83;;;2.00;;
18378;SDS011;27025;51.986;5.984;2023-06-14T11:50:16;3.60;;;1.73;;
18378;SDS011;27025;51.986;5.984;2023-06-14T11:52:42;3.80;;;1.90;;
18378;SDS011;27025;51.986;5.984;2023-06-14T11:55:08;3.58;;;1.80;;
18378;SDS011;27025;51.986;5.984;2023-06-14T11:57:35;4.80;;;2.00;;
18378;SDS011;27025;51.986;5.984;2023-06-14T12:00:04;3.15;;;1.90;;
18378;SDS011;27025;51.986;5.984;2023-06-14T12:02:32;2.45;;;1.80;;
18378;SDS011;27025;51.986;5.984;2023-06-14T12:05:03;5.55;;;1.85;;
18378;SDS011;27025;51.986;5.984;2023-06-14T12:07:30;6.57;;;2.03;;
18378;SDS011;27025;51.986;5.984;2023-06-14T12:12:22;3.35;;;1.55;;
18378;SDS011;27025;51.986;5.984;2023-06-14T12:14:50;7.18;;;2.10;;
18378;SDS011;27025;51.986;5.984;2023-06-14T12:17:16;2.55;;;1.80;;
18378;SDS011;27025;51.986;5.984;2023-06-14T12:19:43;3.15;;;1.90;;
18378;SDS011;27025;51.986;5.984;2023-06-14T12:22:09;2.42;;;1.88;;
18378;SDS011;27025;51.986;5.984;2023-06-14T12:24:36;8.23;;;1.90;;
18378;SDS011;27025;51.986;5.984;2023-06-14T12:27:02;4.53;;;1.60;;
18378;SDS011;27025;51.986;5.984;2023-06-14T12:29:29;2.13;;;1.70;;
18378;SDS011;27025;51.986;5.984;2023-06-14T12:31:55;5.65;;;1.80;;
18378;SDS011;27025;51.986;5.984;2023-06-14T12:34:25;3.03;;;1.73;;
18378;SDS011;27025;51.986;5.984;2023-06-14T12:36:52;2.95;;;2.17;;
18378;SDS011;27025;51.986;5.984;2023-06-14T12:39:18;2.25;;;1.70;;
18378;SDS011;27025;51.986;5.984;2023-06-14T12:41:44;3.42;;;1.60;;
18378;SDS011;27025;51.986;5.984;2023-06-14T12:44:11;2.30;;;1.92;;
18378;SDS011;27025;51.986;5.984;2023-06-14T12:46:37;3.47;;;1.60;;
18378;SDS011;27025;51.986;5.984;2023-06-14T12:49:04;4.20;;;1.90;;
18378;SDS011;27025;51.986;5.984;2023-06-14T12:51:32;2.15;;;1.70;;
18378;SDS011;27025;51.986;5.984;2023-06-14T12:53:57;2.38;;;1.77;;
18378;SDS011;27025;51.986;5.984;2023-06-14T12:56:23;5.15;;;1.80;;
18378;SDS011;27025;51.986;5.984;2023-06-14T12:58:51;5.07;;;1.80;;
18378;SDS011;27025;51.986;5.984;2023-06-14T13:01:17;3.78;;;1.65;;
18378;SDS011;27025;51.986;5.984;2023-06-14T13:03:43;3.50;;;1.60;;
18378;SDS011;27025;51.986;5.984;2023-06-14T13:06:09;7.07;;;1.55;;
18378;SDS011;27025;51.986;5.984;2023-06-14T13:08:36;3.90;;;1.73;;
18378;SDS011;27025;51.986;5.984;2023-06-14T13:11:02;2.70;;;1.50;;
18378;SDS011;27025;51.986;5.984;2023-06-14T13:13:28;3.33;;;1.73;;
18378;SDS011;27025;51.986;5.984;2023-06-14T13:15:54;3.40;;;1.48;;
18378;SDS011;27025;51.986;5.984;2023-06-14T13:18:20;3.25;;;1.42;;
18378;SDS011;27025;51.986;5.984;2023-06-14T13:20:46;4.00;;;1.40;;
18378;SDS011;27025;51.986;5.984;2023-06-14T13:23:12;3.65;;;1.50;;
18378;SDS011;27025;51.986;5.984;2023-06-14T13:25:38;2.90;;;1.30;;
18378;SDS011;27025;51.986;5.984;2023-06-14T13:28:05;2.75;;;1.50;;
18378;SDS011;27025;51.986;5.984;2023-06-14T13:30:31;3.35;;;1.90;;
18378;SDS011;27025;51.986;5.984;2023-06-14T13:32:58;2.42;;;1.30;;
18378;SDS011;27025;51.986;5.984;2023-06-14T13:35:24;2.90;;;1.38;;
18378;SDS011;27025;51.986;5.984;2023-06-14T13:37:50;2.72;;;1.45;;
18378;SDS011;27025;51.986;5.984;2023-06-14T13:40:17;2.25;;;1.50;;
18378;SDS011;27025;51.986;5.984;2023-06-14T13:42:43;3.15;;;1.48;;
18378;SDS011;27025;51.986;5.984;2023-06-14T13:45:09;3.20;;;1.40;;
18378;SDS011;27025;51.986;5.984;2023-06-14T13:47:36;4.07;;;1.40;;
18378;SDS011;27025;51.986;5.984;2023-06-14T13:50:02;2.55;;;1.33;;
18378;SDS011;27025;51.986;5.984;2023-06-14T13:52:28;2.42;;;1.35;;
18378;SDS011;27025;51.986;5.984;2023-06-14T13:54:54;1.55;;;1.40;;
18378;SDS011;27025;51.986;5.984;2023-06-14T13:57:20;2.83;;;1.58;;
18378;SDS011;27025;51.986;5.984;2023-06-14T13:59:46;3.17;;;1.70;;
18378;SDS011;27025;51.986;5.984;2023-06-14T14:02:13;1.45;;;1.35;;
18378;SDS011;27025;51.986;5.984;2023-06-14T14:04:39;3.03;;;1.40;;
18378;SDS011;27025;51.986;5.984;2023-06-14T14:07:06;1.42;;;1.30;;
18378;SDS011;27025;51.986;5.984;2023-06-14T14:09:32;2.33;;;1.48;;
18378;SDS011;27025;51.986;5.984;2023-06-14T14:11:59;1.67;;;1.40;;
18378;SDS011;27025;51.986;5.984;2023-06-14T14:14:25;2.55;;;1.50;;
18378;SDS011;27025;51.986;5.984;2023-06-14T14:16:52;4.47;;;1.48;;
18378;SDS011;27025;51.986;5.984;2023-06-14T14:19:19;6.20;;;1.60;;
18378;SDS011;27025;51.986;5.984;2023-06-14T14:21:46;2.33;;;1.50;;
18378;SDS011;27025;51.986;5.984;2023-06-14T14:24:12;2.33;;;1.27;;
18378;SDS011;27025;51.986;5.984;2023-06-14T14:26:38;4.28;;;1.35;;
18378;SDS011;27025;51.986;5.984;2023-06-14T14:29:04;4.00;;;1.52;;
18378;SDS011;27025;51.986;5.984;2023-06-14T14:31:31;2.75;;;1.50;;
18378;SDS011;27025;51.986;5.984;2023-06-14T14:33:57;4.90;;;1.65;;
18378;SDS011;27025;51.986;5.984;2023-06-14T14:36:23;1.70;;;1.23;;
18378;SDS011;27025;51.986;5.984;2023-06-14T14:38:49;3.97;;;1.48;;
18378;SDS011;27025;51.986;5.984;2023-06-14T14:41:16;1.60;;;1.40;;
18378;SDS011;27025;51.986;5.984;2023-06-14T14:43:42;1.90;;;1.70;;
18378;SDS011;27025;51.986;5.984;2023-06-14T14:46:08;5.78;;;1.70;;
18378;SDS011;27025;51.986;5.984;2023-06-14T14:48:35;3.65;;;1.50;;
18378;SDS011;27025;51.986;5.984;2023-06-14T14:51:01;3.70;;;1.60;;
18378;SDS011;27025;51.986;5.984;2023-06-14T14:53:27;12.25;;;2.10;;
18378;SDS011;27025;51.986;5.984;2023-06-14T14:55:53;2.42;;;1.58;;
18378;SDS011;27025;51.986;5.984;2023-06-14T14:58:19;7.20;;;2.05;;
18378;SDS011;27025;51.986;5.984;2023-06-14T15:00:45;4.10;;;1.70;;
18378;SDS011;27025;51.986;5.984;2023-06-14T15:03:11;6.65;;;1.60;;